createdAt,value
2019-01-23T00:01:22.448Z,85.42
2019-01-23T00:03:51.279Z,85.03
2019-01-23T00:06:20.135Z,85.63
2019-01-23T00:08:48.974Z,85.09
2019-01-23T00:11:17.840Z,85.77
2019-01-23T00:13:46.669Z,85.81
2019-01-23T00:16:15.524Z,85.62
2019-01-23T00:18:44.380Z,85.03
2019-01-23T00:21:13.225Z,85.55
2019-01-23T00:23:42.105Z,85.04
2019-01-23T00:26:11.023Z,85.74
2019-01-23T00:28:42.422Z,84.55
2019-01-23T00:31:08.702Z,85.61
2019-01-23T00:33:37.545Z,85.49
2019-01-23T00:36:06.383Z,85.63
2019-01-23T00:38:35.229Z,84.62
2019-01-23T00:41:04.069Z,84.93
2019-01-23T00:43:32.949Z,85.54
2019-01-23T00:46:01.821Z,85.29
2019-01-23T00:48:30.727Z,84.89
2019-01-23T00:50:59.581Z,85.09
2019-01-23T00:53:28.445Z,85.48
2019-01-23T00:55:57.282Z,84.54
2019-01-23T00:58:26.117Z,85.83
2019-01-23T01:00:54.957Z,84.95
2019-01-23T01:03:23.791Z,85.04
2019-01-23T01:05:52.631Z,84.88
2019-01-23T01:08:21.472Z,84.37
2019-01-23T01:10:50.296Z,85.14
2019-01-23T01:13:19.146Z,85.28
2019-01-23T01:15:48.052Z,85.50
2019-01-23T01:18:16.905Z,84.73
2019-01-23T01:20:45.749Z,84.72
2019-01-23T01:23:14.583Z,85.25
2019-01-23T01:25:43.421Z,85.44
2019-01-23T01:28:12.268Z,84.55
2019-01-23T01:30:41.128Z,85.15
2019-01-23T01:33:09.957Z,85.55
2019-01-23T01:35:38.793Z,85.64
2019-01-23T01:38:07.619Z,84.71
2019-01-23T01:40:36.457Z,85.52
2019-01-23T01:43:05.298Z,84.35
2019-01-23T01:45:34.145Z,85.36
2019-01-23T01:48:02.990Z,84.52
2019-01-23T01:50:31.896Z,85.14
2019-01-23T01:53:00.745Z,85.24
2019-01-23T01:55:29.621Z,84.87
2019-01-23T01:58:01.089Z,85.10
2019-01-23T02:00:29.935Z,84.92
2019-01-23T02:02:58.789Z,84.35
2019-01-23T02:05:29.435Z,84.46
2019-01-23T02:07:59.463Z,85.75
2019-01-23T02:10:28.316Z,84.75
2019-01-23T02:12:57.154Z,84.40
2019-01-23T02:15:26.004Z,84.30
2019-01-23T02:17:54.858Z,85.53
2019-01-23T02:20:25.633Z,84.34
2019-01-23T02:22:54.501Z,85.03
2019-01-23T02:25:23.393Z,85.50
2019-01-23T02:27:52.213Z,85.27
2019-01-23T02:30:22.807Z,84.42
2019-01-23T02:32:51.648Z,84.00
2019-01-23T02:35:20.486Z,84.64
2019-01-23T02:37:49.315Z,85.15
2019-01-23T02:40:20.619Z,85.40
2019-01-23T02:42:49.465Z,85.19
2019-01-23T02:45:18.309Z,85.04
2019-01-23T02:47:47.162Z,84.84
2019-01-23T02:50:16.026Z,84.33
2019-01-23T02:52:44.882Z,84.55
2019-01-23T02:55:13.722Z,84.78
2019-01-23T02:57:42.583Z,84.70
2019-01-23T03:00:13.597Z,84.23
2019-01-23T03:02:44.004Z,84.61
2019-01-23T03:05:15.393Z,85.38
2019-01-23T03:07:44.287Z,84.59
2019-01-23T03:10:15.713Z,85.10
2019-01-23T03:12:44.647Z,84.46
2019-01-23T03:15:13.789Z,84.80
2019-01-23T03:17:42.634Z,84.59
2019-01-23T03:20:12.777Z,85.51
2019-01-23T03:22:41.627Z,85.01
2019-01-23T03:25:11.186Z,84.42
2019-01-23T03:27:40.017Z,84.84
2019-01-23T03:30:12.632Z,84.43
2019-01-23T03:32:41.557Z,85.23
2019-01-23T03:35:10.485Z,84.45
2019-01-23T03:37:39.358Z,84.37
2019-01-23T03:40:11.309Z,84.33
2019-01-23T03:42:40.146Z,85.17
2019-01-23T03:45:10.508Z,84.95
2019-01-23T03:47:39.389Z,84.71
2019-01-23T03:50:10.955Z,85.44
2019-01-23T03:52:39.846Z,85.23
2019-01-23T03:55:09.226Z,85.11
2019-01-23T03:57:38.095Z,85.40
2019-01-23T04:00:09.266Z,84.82
2019-01-23T04:02:38.101Z,84.62
2019-01-23T04:05:08.263Z,84.93
2019-01-23T04:07:37.125Z,84.59
2019-01-23T04:10:07.943Z,84.40
2019-01-23T04:12:36.760Z,84.90
2019-01-23T04:15:06.296Z,84.72
2019-01-23T04:17:35.116Z,84.69
2019-01-23T04:20:05.243Z,85.13
2019-01-23T04:22:34.311Z,84.77
2019-01-23T04:25:03.101Z,85.42
2019-01-23T04:27:32.191Z,85.56
2019-01-23T04:30:01.080Z,86.23
2019-01-23T04:32:29.963Z,85.56
2019-01-23T04:34:58.796Z,84.99
2019-01-23T04:37:28.487Z,85.94
2019-01-23T04:39:57.287Z,85.92
2019-01-23T04:42:26.103Z,85.42
2019-01-23T04:44:54.903Z,84.80
2019-01-23T04:47:23.702Z,85.80
2019-01-23T04:49:52.519Z,85.19
2019-01-23T04:52:25.482Z,85.19
2019-01-23T04:54:54.267Z,85.85
2019-01-23T04:57:23.061Z,85.18
2019-01-23T04:59:51.842Z,85.68
2019-01-23T05:02:20.624Z,85.09
2019-01-23T05:04:49.410Z,85.75
2019-01-23T05:07:18.207Z,85.53
2019-01-23T05:09:46.988Z,85.42
2019-01-23T05:12:15.796Z,85.23
2019-01-23T05:14:44.577Z,85.01
2019-01-23T05:17:13.355Z,85.05
2019-01-23T05:19:42.175Z,84.96
2019-01-23T05:22:11.036Z,85.69
2019-01-23T05:24:39.862Z,86.33
2019-01-23T05:27:08.706Z,85.38
2019-01-23T05:29:37.493Z,84.78
2019-01-23T05:32:06.302Z,84.94
2019-01-23T05:34:35.971Z,85.20
2019-01-23T05:37:04.783Z,85.68
2019-01-23T05:39:33.635Z,84.91
2019-01-23T05:44:42.664Z,85.32
2019-01-23T05:47:11.455Z,85.17
2019-01-23T05:49:40.319Z,85.36
2019-01-23T05:52:09.158Z,85.47
2019-01-23T05:54:37.972Z,85.30
2019-01-23T05:57:06.767Z,84.71
2019-01-23T05:59:36.135Z,84.92
2019-01-23T06:02:04.988Z,84.66
2019-01-23T06:04:33.775Z,85.22
2019-01-23T06:07:02.576Z,84.90
2019-01-23T06:09:31.375Z,84.93
2019-01-23T06:12:00.176Z,85.37
2019-01-23T06:14:29.054Z,84.67
2019-01-23T06:16:57.868Z,84.62
2019-01-23T06:19:26.656Z,85.01
2019-01-23T06:21:55.465Z,84.81
2019-01-23T06:24:24.287Z,84.73
2019-01-23T06:26:53.085Z,84.55
2019-01-23T06:29:21.881Z,85.00
2019-01-23T06:31:50.680Z,84.19
2019-01-23T06:34:19.473Z,84.94
2019-01-23T06:36:48.261Z,84.55
2019-01-23T06:39:17.045Z,85.15
2019-01-23T06:41:45.863Z,85.17
2019-01-23T06:44:14.732Z,85.79
2019-01-23T06:46:43.536Z,84.96
2019-01-23T06:49:12.335Z,85.30
2019-01-23T06:51:41.219Z,85.61
2019-01-23T06:54:10.020Z,86.11
2019-01-23T06:56:38.840Z,85.50
2019-01-23T06:59:07.648Z,85.07
2019-01-23T07:01:36.441Z,85.13
2019-01-23T07:04:05.267Z,84.93
2019-01-23T07:06:34.078Z,84.80
2019-01-23T07:09:02.870Z,85.86
2019-01-23T07:11:31.654Z,84.72
2019-01-23T07:14:02.260Z,84.74
2019-01-23T07:16:31.131Z,85.68
2019-01-23T07:18:59.895Z,85.45
2019-01-23T07:21:28.739Z,84.42
2019-01-23T07:23:57.572Z,85.06
2019-01-23T07:26:26.413Z,85.01
2019-01-23T07:28:55.210Z,85.16
2019-01-23T07:31:24.536Z,84.77
2019-01-23T07:33:54.443Z,84.40
2019-01-23T07:36:23.542Z,84.51
2019-01-23T07:38:51.998Z,85.04
2019-01-23T07:41:20.782Z,84.71
2019-01-23T07:43:49.570Z,84.49
2019-01-23T07:46:18.366Z,84.38
2019-01-23T07:48:47.136Z,84.99
2019-01-23T07:51:15.933Z,85.02
2019-01-23T07:53:44.750Z,84.85
2019-01-23T07:56:13.561Z,84.37
2019-01-23T07:58:42.345Z,83.68
2019-01-23T08:01:13.414Z,84.31
2019-01-23T08:03:42.211Z,83.56
2019-01-23T08:06:11.006Z,83.34
2019-01-23T08:08:39.815Z,83.14
2019-01-23T08:11:08.649Z,82.78
2019-01-23T08:13:37.451Z,83.62
2019-01-23T08:16:07.197Z,83.42
2019-01-23T08:18:36.000Z,83.17
2019-01-23T08:21:04.764Z,83.25
2019-01-23T08:23:33.586Z,82.41
2019-01-23T08:26:02.379Z,82.98
2019-01-23T08:28:31.260Z,81.99
2019-01-23T08:31:00.454Z,82.58
2019-01-23T08:33:29.239Z,82.10
2019-01-23T08:35:58.016Z,82.91
2019-01-23T08:38:28.019Z,82.73
2019-01-23T08:40:56.844Z,81.95
2019-01-23T08:43:25.667Z,82.07
2019-01-23T08:45:54.468Z,82.49
2019-01-23T08:48:23.322Z,82.02
2019-01-23T08:50:52.112Z,81.36
2019-01-23T08:53:20.892Z,81.33
2019-01-23T08:55:53.542Z,81.83
2019-01-23T08:58:18.459Z,82.44
2019-01-23T09:00:48.131Z,81.65
2019-01-23T09:03:16.927Z,81.70
2019-01-23T09:05:45.727Z,81.26
2019-01-23T09:08:14.533Z,81.84
2019-01-23T09:10:43.315Z,82.09
2019-01-23T09:13:12.111Z,82.59
2019-01-23T09:15:40.962Z,81.35
2019-01-23T09:18:09.723Z,81.64
2019-01-23T09:20:38.514Z,81.69
2019-01-23T09:23:07.315Z,81.22
2019-01-23T09:25:36.128Z,82.34
2019-01-23T09:28:04.998Z,80.91
2019-01-23T09:30:53.004Z,81.07
2019-01-23T09:33:31.154Z,81.81
2019-01-23T09:36:12.364Z,81.06
2019-01-23T09:38:52.505Z,80.22
2019-01-23T09:41:31.001Z,81.19
2019-01-23T09:44:45.229Z,80.27
2019-01-23T09:47:20.218Z,81.18
2019-01-23T09:49:58.510Z,80.40
2019-01-23T09:52:40.167Z,80.54
2019-01-23T09:55:10.858Z,79.84
2019-01-23T09:57:43.516Z,80.07
2019-01-23T10:00:16.309Z,79.95
2019-01-23T10:02:45.247Z,79.71
2019-01-23T10:05:14.036Z,79.70
2019-01-23T10:07:42.808Z,79.44
2019-01-23T10:10:13.526Z,79.50
2019-01-23T10:12:42.330Z,79.72
2019-01-23T10:15:14.887Z,78.53
2019-01-23T10:17:43.702Z,78.97
2019-01-23T10:20:12.506Z,78.56
2019-01-23T10:22:41.358Z,79.48
2019-01-23T10:25:10.156Z,78.75
2019-01-23T10:27:39.199Z,78.24
2019-01-23T10:30:09.054Z,79.27
2019-01-23T10:32:39.098Z,78.98
2019-01-23T10:35:09.701Z,80.08
2019-01-23T10:37:38.471Z,79.22
2019-01-23T10:40:10.111Z,78.46
2019-01-23T10:42:38.895Z,79.76
2019-01-23T10:45:08.323Z,78.36
2019-01-23T10:47:37.095Z,78.64
2019-01-23T10:50:06.202Z,79.69
2019-01-23T10:52:35.016Z,78.81
2019-01-23T10:55:04.208Z,78.25
2019-01-23T10:57:33.045Z,78.87
2019-01-23T11:00:01.938Z,79.07
2019-01-23T11:02:30.816Z,77.61
2019-01-23T11:04:59.630Z,78.88
2019-01-23T11:07:28.459Z,78.44
2019-01-23T11:09:57.240Z,78.61
2019-01-23T11:12:26.031Z,78.46
2019-01-23T11:14:55.811Z,77.41
2019-01-23T11:17:24.611Z,76.12
2019-01-23T11:19:53.398Z,75.01
2019-01-23T11:22:22.789Z,75.76
2019-01-23T11:24:52.128Z,75.68
2019-01-23T11:27:20.918Z,75.89
2019-01-23T11:29:49.716Z,74.03
2019-01-23T11:32:19.158Z,75.01
2019-01-23T11:34:47.934Z,74.13
2019-01-23T11:37:16.722Z,74.05
2019-01-23T11:39:46.015Z,73.94
2019-01-23T11:42:14.811Z,71.26
2019-01-23T11:44:43.618Z,72.52
2019-01-23T11:47:12.419Z,72.64
2019-01-23T11:49:41.192Z,73.41
2019-01-23T11:52:09.999Z,72.34
2019-01-23T11:54:38.803Z,73.05
2019-01-23T11:57:07.586Z,73.53
2019-01-23T11:59:36.374Z,73.34
2019-01-23T12:02:05.269Z,73.42
2019-01-23T12:04:34.014Z,73.40
2019-01-23T12:07:02.802Z,73.24
2019-01-23T12:09:31.653Z,72.78
2019-01-23T12:12:00.445Z,73.71
2019-01-23T12:14:29.326Z,74.54
2019-01-23T12:17:02.182Z,74.26
2019-01-23T12:19:31.032Z,73.64
2019-01-23T12:21:59.818Z,73.82
2019-01-23T12:24:28.604Z,74.08
2019-01-23T12:26:57.435Z,73.84
2019-01-23T12:29:26.218Z,74.89
2019-01-23T12:31:55.012Z,74.15
2019-01-23T12:34:24.063Z,74.56
2019-01-23T12:36:55.670Z,74.52
2019-01-23T12:39:24.468Z,75.51
2019-01-23T12:41:53.544Z,74.06
2019-01-23T12:44:23.015Z,75.40
2019-01-23T12:46:52.067Z,74.92
2019-01-23T12:49:20.934Z,74.58
2019-01-23T12:51:49.750Z,74.23
2019-01-23T12:54:18.562Z,74.95
2019-01-23T12:56:47.350Z,75.19
2019-01-23T12:59:16.147Z,75.12
2019-01-23T13:01:44.956Z,75.25
2019-01-23T13:04:13.740Z,75.11
2019-01-23T13:06:43.234Z,75.50
2019-01-23T13:09:11.329Z,74.95
2019-01-23T13:11:40.127Z,74.70
2019-01-23T13:14:08.911Z,75.29
2019-01-23T13:16:37.719Z,74.24
2019-01-23T13:19:06.547Z,74.40
2019-01-23T13:21:36.727Z,75.56
2019-01-23T13:24:05.556Z,75.54
2019-01-23T13:26:34.357Z,74.97
2019-01-23T13:29:03.135Z,74.30
2019-01-23T13:31:31.939Z,74.78
2019-01-23T13:34:00.736Z,74.75
2019-01-23T13:36:29.545Z,74.95
2019-01-23T13:38:58.489Z,74.65
2019-01-23T13:41:27.271Z,74.93
2019-01-23T13:43:56.065Z,75.00
2019-01-23T13:46:24.873Z,75.24
2019-01-23T13:48:53.663Z,75.13
2019-01-23T13:51:22.448Z,74.78
2019-01-23T13:53:51.303Z,75.62
2019-01-23T13:56:20.103Z,76.56
2019-01-23T13:58:48.896Z,75.92
2019-01-23T14:01:17.699Z,76.64
2019-01-23T14:03:46.592Z,76.06
2019-01-23T14:06:15.371Z,75.58
2019-01-23T14:08:44.183Z,76.13
2019-01-23T14:11:12.968Z,75.90
2019-01-23T14:13:41.758Z,76.12
2019-01-23T14:16:11.492Z,76.53
2019-01-23T14:18:40.281Z,75.98
2019-01-23T14:21:09.100Z,76.18
2019-01-23T14:23:37.892Z,76.53
2019-01-23T14:26:06.698Z,76.61
2019-01-23T14:28:36.774Z,76.95
2019-01-23T14:31:06.920Z,77.05
2019-01-23T14:33:34.457Z,77.48
2019-01-23T14:36:03.276Z,77.28
2019-01-23T14:38:32.133Z,76.76
2019-01-23T14:41:00.967Z,77.59
2019-01-23T14:43:29.802Z,78.05
2019-01-23T14:45:58.606Z,77.14
2019-01-23T14:48:27.390Z,77.69
2019-01-23T14:50:56.248Z,78.04
2019-01-23T14:53:25.037Z,77.46
2019-01-23T14:55:53.835Z,78.47
2019-01-23T14:58:22.670Z,78.19
2019-01-23T15:00:51.464Z,78.06
2019-01-23T15:03:20.269Z,78.57
2019-01-23T15:05:49.130Z,78.40
2019-01-23T15:08:17.919Z,78.62
2019-01-23T15:10:46.792Z,78.29
2019-01-23T15:13:15.588Z,78.06
2019-01-23T15:15:44.389Z,79.04
2019-01-23T15:18:13.166Z,77.92
2019-01-23T15:20:42.002Z,79.20
2019-01-23T15:23:10.837Z,78.33
2019-01-23T15:25:39.628Z,78.36
2019-01-23T15:28:08.451Z,79.32
2019-01-23T15:30:37.331Z,78.71
2019-01-23T15:33:06.187Z,78.72
2019-01-23T15:35:35.100Z,79.58
2019-01-23T15:38:03.948Z,80.08
2019-01-23T15:40:35.210Z,80.26
2019-01-23T15:43:04.000Z,79.04
2019-01-23T15:45:34.363Z,79.85
2019-01-23T15:48:03.153Z,79.55
2019-01-23T15:50:31.963Z,79.60
2019-01-23T15:53:00.814Z,80.11
2019-01-23T15:55:29.588Z,80.50
2019-01-23T15:57:58.372Z,79.90
2019-01-23T16:00:29.226Z,80.61
2019-01-23T16:02:58.025Z,80.09
2019-01-23T16:05:26.832Z,80.69
2019-01-23T16:07:55.619Z,80.44
2019-01-23T16:10:25.976Z,80.31
2019-01-23T16:12:54.814Z,79.73
2019-01-23T16:15:24.846Z,79.93
2019-01-23T16:17:53.635Z,80.59
2019-01-23T16:20:22.441Z,80.46
2019-01-23T16:22:51.211Z,80.37
2019-01-23T16:25:20.015Z,80.38
2019-01-23T16:27:48.787Z,80.49
2019-01-23T16:30:22.443Z,79.75
2019-01-23T16:32:51.235Z,80.71
2019-01-23T16:35:20.075Z,80.65
2019-01-23T16:37:48.916Z,80.43
2019-01-23T16:40:17.727Z,80.92
2019-01-23T16:42:46.606Z,80.44
2019-01-23T16:45:17.619Z,81.22
2019-01-23T16:47:47.675Z,81.28
2019-01-23T16:50:18.469Z,80.67
2019-01-23T16:52:47.412Z,80.38
2019-01-23T16:55:16.162Z,80.71
2019-01-23T16:57:44.977Z,80.09
2019-01-23T17:00:15.760Z,80.68
2019-01-23T17:02:45.389Z,80.75
2019-01-23T17:05:17.258Z,80.80
2019-01-23T17:07:46.177Z,80.11
2019-01-23T17:10:31.963Z,79.50
2019-01-23T17:13:00.823Z,80.30
2019-01-23T17:15:29.705Z,80.77
2019-01-23T17:17:58.809Z,79.00
2019-01-23T17:20:32.483Z,79.75
2019-01-23T17:23:01.514Z,79.11
2019-01-23T17:25:30.864Z,80.30
2019-01-23T17:27:59.716Z,79.80
2019-01-23T17:30:28.546Z,80.58
2019-01-23T17:32:57.483Z,79.79
2019-01-23T17:35:26.319Z,80.24
2019-01-23T17:37:55.154Z,80.48
2019-01-23T17:40:24.026Z,80.17
2019-01-23T17:42:52.856Z,79.70
2019-01-23T17:45:24.060Z,79.59
2019-01-23T17:47:52.862Z,79.44
2019-01-23T17:50:22.215Z,79.94
2019-01-23T17:52:51.155Z,79.82
2019-01-23T17:55:22.602Z,80.22
2019-01-23T17:57:51.488Z,80.52
2019-01-23T18:00:23.340Z,79.95
2019-01-23T18:02:52.804Z,80.17
2019-01-23T18:05:20.575Z,80.14
2019-01-23T18:07:49.378Z,79.82
2019-01-23T18:10:18.210Z,78.47
2019-01-23T18:12:47.103Z,78.20
2019-01-23T18:15:18.080Z,79.04
2019-01-23T18:17:46.891Z,78.23
2019-01-23T18:20:18.374Z,78.19
2019-01-23T18:22:47.255Z,78.12
2019-01-23T18:25:16.243Z,78.85
2019-01-23T18:27:45.174Z,77.94
2019-01-23T18:30:17.559Z,78.21
2019-01-23T18:32:46.440Z,77.49
2019-01-23T18:35:32.946Z,78.13
2019-01-23T18:38:24.339Z,77.57
2019-01-23T18:41:52.331Z,76.96
2019-01-23T18:44:43.596Z,76.41
2019-01-23T18:47:30.626Z,77.39
2019-01-23T18:50:17.426Z,77.83
2019-01-23T18:52:46.223Z,77.36
2019-01-23T18:55:16.155Z,77.13
2019-01-23T18:57:45.032Z,76.68
2019-01-23T19:00:16.778Z,77.19
2019-01-23T19:02:45.579Z,77.18
2019-01-23T19:05:15.959Z,76.66
2019-01-23T19:07:44.798Z,77.19
2019-01-23T19:10:13.808Z,76.37
2019-01-23T19:12:42.624Z,77.42
2019-01-23T19:15:12.751Z,75.87
2019-01-23T19:17:41.547Z,75.93
2019-01-23T19:20:13.872Z,76.39
2019-01-23T19:22:42.671Z,76.65
2019-01-23T19:25:11.488Z,76.69
2019-01-23T19:27:40.336Z,76.13
2019-01-23T19:30:10.609Z,76.75
2019-01-23T19:32:39.424Z,76.06
2019-01-23T19:35:08.427Z,75.81
2019-01-23T19:37:37.226Z,75.64
2019-01-23T19:40:06.771Z,76.08
2019-01-23T19:42:35.582Z,76.20
2019-01-23T19:45:05.683Z,75.48
2019-01-23T19:47:34.468Z,75.33
2019-01-23T19:50:03.320Z,75.69
2019-01-23T19:52:32.187Z,75.78
2019-01-23T19:55:01.000Z,76.83
2019-01-23T19:57:29.803Z,75.99
2019-01-23T19:59:58.640Z,76.75
2019-01-23T20:02:27.495Z,76.55
2019-01-23T20:04:56.926Z,76.75
2019-01-23T20:07:25.776Z,76.40
2019-01-23T20:09:55.671Z,76.63
2019-01-23T20:12:24.660Z,76.93
2019-01-23T20:14:53.444Z,76.51
2019-01-23T20:17:22.250Z,77.41
2019-01-23T20:19:51.111Z,75.97
2019-01-23T20:22:19.955Z,76.27
2019-01-23T20:24:48.759Z,76.92
2019-01-23T20:27:17.611Z,76.03
2019-01-23T20:29:46.440Z,75.88
2019-01-23T20:32:15.259Z,76.94
2019-01-23T20:34:44.165Z,77.21
2019-01-23T20:37:12.986Z,76.39
2019-01-23T20:39:41.780Z,76.16
2019-01-23T20:42:10.589Z,75.92
2019-01-23T20:44:39.383Z,76.47
2019-01-23T20:47:08.267Z,75.24
2019-01-23T20:49:37.067Z,75.84
2019-01-23T20:52:05.963Z,75.51
2019-01-23T20:54:34.794Z,75.28
2019-01-23T20:57:03.614Z,75.08
2019-01-23T20:59:32.435Z,76.23
2019-01-23T21:02:01.271Z,75.06
2019-01-23T21:04:30.084Z,74.55
2019-01-23T21:06:58.875Z,75.25
2019-01-23T21:09:27.689Z,75.16
2019-01-23T21:11:56.475Z,75.75
2019-01-23T21:14:25.355Z,74.91
2019-01-23T21:16:54.163Z,75.76
2019-01-23T21:19:23.027Z,75.69
2019-01-23T21:21:51.872Z,75.54
2019-01-23T21:24:20.741Z,75.67
2019-01-23T21:26:49.524Z,75.36
2019-01-23T21:29:18.355Z,75.74
2019-01-23T21:31:47.211Z,75.30
2019-01-23T21:34:16.105Z,74.98
2019-01-23T21:36:44.893Z,75.60
2019-01-23T21:39:13.719Z,75.43
2019-01-23T21:41:42.547Z,75.30
2019-01-23T21:44:11.351Z,76.34
2019-01-23T21:46:40.170Z,75.52
2019-01-23T21:49:08.960Z,75.79
2019-01-23T21:51:37.766Z,75.03
2019-01-23T21:54:06.562Z,75.27
2019-01-23T21:56:35.368Z,75.09
2019-01-23T21:59:04.177Z,75.92
2019-01-23T22:01:33.171Z,76.28
2019-01-23T22:04:02.005Z,75.93
2019-01-23T22:06:31.180Z,76.27
2019-01-23T22:08:59.981Z,76.49
2019-01-23T22:11:28.772Z,76.31
2019-01-23T22:13:57.604Z,76.07
2019-01-23T22:16:26.415Z,74.58
2019-01-23T22:18:55.205Z,75.85
2019-01-23T22:21:24.008Z,75.65
2019-01-23T22:23:52.816Z,75.90
2019-01-23T22:26:21.624Z,75.67
2019-01-23T22:28:50.491Z,75.55
2019-01-23T22:31:19.331Z,75.41
2019-01-23T22:33:48.138Z,74.87
2019-01-23T22:36:16.992Z,75.78
2019-01-23T22:38:45.819Z,74.75
2019-01-23T22:41:14.705Z,74.37
2019-01-23T22:43:43.679Z,74.92
2019-01-23T22:46:12.451Z,75.87
2019-01-23T22:48:41.347Z,75.95
2019-01-23T22:51:10.139Z,75.28
2019-01-23T22:53:38.942Z,75.41
2019-01-23T22:56:07.739Z,75.03
2019-01-23T22:58:36.555Z,74.59
2019-01-23T23:01:11.324Z,75.41
2019-01-23T23:03:40.214Z,75.18
2019-01-23T23:06:09.101Z,75.54
2019-01-23T23:08:37.907Z,75.48
2019-01-23T23:11:06.693Z,76.12
2019-01-23T23:13:35.626Z,76.00
2019-01-23T23:16:04.294Z,76.11
2019-01-23T23:18:33.095Z,75.73
2019-01-23T23:21:01.995Z,74.72
2019-01-23T23:23:31.009Z,75.44
2019-01-23T23:25:59.846Z,75.73
2019-01-23T23:28:28.647Z,75.21
2019-01-23T23:30:57.487Z,75.66
2019-01-23T23:33:26.299Z,75.83
2019-01-23T23:35:55.134Z,75.66
2019-01-23T23:38:23.985Z,75.93
2019-01-23T23:40:52.931Z,75.59
2019-01-23T23:43:21.699Z,76.20
2019-01-23T23:45:50.517Z,75.70
2019-01-23T23:48:19.335Z,75.74
2019-01-23T23:50:48.336Z,75.94
2019-01-23T23:53:17.187Z,75.81
2019-01-23T23:55:46.018Z,75.29
2019-01-23T23:58:14.826Z,75.93
